Terminal Aerodrome Forecast
Issued by NWS

Home | Current Version | Previous Version | Text Only | Print | Product List | Glossary On
Versions: 1 2 3 4 5 6 7 8 9 10 11 12 13 14 15 16 17
577
FTUS46 KSEW 251729
TAFBLI
TAF
KBLI 251729Z 2518/2618 17009KT P6SM -RA FEW007 SCT035 OVC050
     FM260200 VRB02KT P6SM FEW022 BKN035 OVC050
     FM260900 00000KT 5SM BR SCT015 OVC035
     FM261200 00000KT 5SM BR OVC015=

USA.gov is the U.S. government's official web portal to all federal, state and local government web resources and services.